createdAt,value
2019-05-01T00:01:55.455Z,7.40
2019-05-01T00:07:04.202Z,7.40
2019-05-01T00:12:09.536Z,7.30
2019-05-01T00:17:16.208Z,7.20
2019-05-01T00:22:21.491Z,7.10
2019-05-01T00:27:26.880Z,7.10
2019-05-01T00:32:32.359Z,7.00
2019-05-01T00:37:37.736Z,6.80
2019-05-01T00:42:43.014Z,6.60
2019-05-01T00:47:48.332Z,6.70
2019-05-01T00:52:53.638Z,6.60
2019-05-01T00:58:06.342Z,6.60
2019-05-01T01:03:11.636Z,6.50
2019-05-01T01:08:17.682Z,6.40
2019-05-01T01:13:23.151Z,6.30
2019-05-01T01:18:28.438Z,6.20
2019-05-01T01:23:34.121Z,6.10
2019-05-01T01:28:39.419Z,6.00
2019-05-01T01:33:44.711Z,6.00
2019-05-01T01:38:49.991Z,5.90
2019-05-01T01:44:09.391Z,5.80
2019-05-01T01:49:15.287Z,5.70
2019-05-01T01:54:20.680Z,5.60
2019-05-01T01:59:26.488Z,5.50
2019-05-01T02:04:56.978Z,5.50
2019-05-01T02:10:05.888Z,5.50
2019-05-01T02:15:12.253Z,5.50
2019-05-01T02:20:17.671Z,5.50
2019-05-01T02:25:23.273Z,5.40
2019-05-01T02:30:28.694Z,5.40
2019-05-01T02:35:35.795Z,5.30
2019-05-01T02:40:49.791Z,5.30
2019-05-01T02:46:01.464Z,5.20
2019-05-01T02:51:08.546Z,5.30
2019-05-01T02:56:30.416Z,5.30
2019-05-01T03:01:46.397Z,5.20
2019-05-01T03:06:44.593Z,5.20
2019-05-01T03:11:52.774Z,5.10
2019-05-01T03:17:01.487Z,5.10
2019-05-01T03:22:13.407Z,5.00
2019-05-01T03:27:18.727Z,5.10
2019-05-01T03:32:24.029Z,4.90
2019-05-01T03:37:29.944Z,4.80
2019-05-01T03:42:35.240Z,4.80
2019-05-01T03:47:41.048Z,4.90
2019-05-01T03:52:46.584Z,4.90
2019-05-01T03:57:52.054Z,4.90
2019-05-01T04:03:34.660Z,5.00
2019-05-01T04:08:40.593Z,4.90
2019-05-01T04:13:47.062Z,5.00
2019-05-01T04:18:52.477Z,5.00
2019-05-01T04:23:58.080Z,5.00
2019-05-01T04:29:29.211Z,5.00
2019-05-01T04:34:40.839Z,4.90
2019-05-01T04:39:46.446Z,4.90
2019-05-01T04:44:51.831Z,4.90
2019-05-01T04:49:57.138Z,5.00
2019-05-01T04:55:02.676Z,5.00
2019-05-01T05:00:08.116Z,5.10
2019-05-01T05:05:14.146Z,5.30
2019-05-01T05:10:20.944Z,5.60
2019-05-01T05:15:34.544Z,5.90
2019-05-01T05:20:40.192Z,6.10
2019-05-01T05:25:45.689Z,6.20
2019-05-01T05:30:53.318Z,6.40
2019-05-01T05:35:59.464Z,6.50
2019-05-01T05:41:05.660Z,6.60
2019-05-01T05:46:11.103Z,6.60
2019-05-01T05:51:26.903Z,6.80
2019-05-01T05:56:40.547Z,7.60
2019-05-01T06:02:10.204Z,8.50
2019-05-01T06:07:27.714Z,8.50
2019-05-01T06:12:52.990Z,8.80
2019-05-01T06:18:07.161Z,8.60
2019-05-01T06:23:29.207Z,9.30
2019-05-01T06:28:34.508Z,9.10
2019-05-01T06:33:44.429Z,8.80
2019-05-01T06:38:47.900Z,8.90
2019-05-01T06:44:04.056Z,9.50
2019-05-01T06:49:24.391Z,9.90
2019-05-01T06:54:32.280Z,9.60
2019-05-01T06:59:40.668Z,9.80
2019-05-01T07:04:47.976Z,10.10
2019-05-01T07:09:56.678Z,10.50
2019-05-01T07:15:03.011Z,10.50
2019-05-01T07:20:28.940Z,10.70
2019-05-01T07:25:34.970Z,11.10
2019-05-01T07:30:49.860Z,11.20
2019-05-01T07:35:54.827Z,11.90
2019-05-01T07:41:03.373Z,11.80
2019-05-01T07:46:13.806Z,12.20
2019-05-01T07:51:20.990Z,12.50
2019-05-01T07:56:28.291Z,13.40
2019-05-01T08:01:54.507Z,12.80
2019-05-01T08:06:59.330Z,13.00
2019-05-01T08:12:05.863Z,13.80
2019-05-01T08:17:12.817Z,15.20
2019-05-01T08:22:24.755Z,16.30
2019-05-01T08:27:51.054Z,16.60
2019-05-01T08:33:19.498Z,15.10
2019-05-01T08:38:24.836Z,15.90
2019-05-01T08:43:30.560Z,15.90
2019-05-01T08:48:54.842Z,16.20
2019-05-01T08:54:00.414Z,16.10
2019-05-01T08:59:07.564Z,15.30
2019-05-01T09:04:13.502Z,14.80
2019-05-01T09:09:19.315Z,15.50
2019-05-01T09:14:25.095Z,15.50
2019-05-01T09:19:31.428Z,15.60
2019-05-01T09:24:36.847Z,16.30
2019-05-01T09:29:46.759Z,15.50
2019-05-01T09:34:53.330Z,15.60
2019-05-01T09:39:58.654Z,16.60
2019-05-01T09:45:05.074Z,16.60
2019-05-01T09:50:10.880Z,16.20
2019-05-01T09:55:39.911Z,16.50
2019-05-01T10:00:56.727Z,16.20
2019-05-01T10:06:02.163Z,17.10
2019-05-01T10:11:08.011Z,16.90
2019-05-01T10:16:13.429Z,17.60
2019-05-01T10:21:22.384Z,16.90
2019-05-01T10:26:27.796Z,17.20
2019-05-01T10:31:56.900Z,17.10
2019-05-01T10:37:02.556Z,16.90
2019-05-01T10:42:08.604Z,17.40
2019-05-01T10:47:14.332Z,18.20
2019-05-01T10:52:20.005Z,17.40
2019-05-01T10:57:25.408Z,16.90
2019-05-01T11:02:30.763Z,16.80
2019-05-01T11:07:36.303Z,16.40
2019-05-01T11:12:46.482Z,16.60
2019-05-01T11:17:59.576Z,16.80
2019-05-01T11:23:07.504Z,16.40
2019-05-01T11:28:20.689Z,16.00
2019-05-01T11:33:47.581Z,15.80
2019-05-01T11:39:02.892Z,15.80
2019-05-01T11:44:20.880Z,15.70
2019-05-01T11:49:32.820Z,15.70
2019-05-01T11:54:50.051Z,15.90
2019-05-01T11:59:55.376Z,15.90
2019-05-01T12:05:00.809Z,15.90
2019-05-01T12:10:06.952Z,15.80
2019-05-01T12:15:12.640Z,15.50
2019-05-01T12:20:20.235Z,15.40
2019-05-01T12:25:25.612Z,15.50
2019-05-01T12:30:30.961Z,15.50
2019-05-01T12:35:36.243Z,15.60
2019-05-01T12:40:42.450Z,19.10
2019-05-01T12:45:49.460Z,15.70
2019-05-01T12:50:55.947Z,15.90
2019-05-01T12:56:13.536Z,16.00
2019-05-01T13:01:18.869Z,16.30
2019-05-01T13:06:24.291Z,16.60
2019-05-01T13:11:29.617Z,17.00
2019-05-01T13:16:34.960Z,17.30
2019-05-01T13:21:40.259Z,17.90
2019-05-01T13:26:51.213Z,17.90
2019-05-01T13:32:01.027Z,17.70
2019-05-01T13:37:07.557Z,17.80
2019-05-01T13:42:16.971Z,17.70
2019-05-01T13:47:23.795Z,17.40
2019-05-01T13:52:35.814Z,17.40
2019-05-01T13:57:41.241Z,18.10
2019-05-01T14:02:47.089Z,18.50
2019-05-01T14:07:52.743Z,18.40
2019-05-01T14:12:58.398Z,18.30
2019-05-01T14:18:04.191Z,17.70
2019-05-01T14:23:27.377Z,17.40
2019-05-01T14:28:33.424Z,17.70
2019-05-01T14:33:38.943Z,17.50
2019-05-01T14:38:44.474Z,17.60
2019-05-01T14:43:49.985Z,17.70
2019-05-01T14:48:55.280Z,17.70
2019-05-01T14:54:00.844Z,16.40
2019-05-01T14:59:06.565Z,17.90
2019-05-01T15:04:11.995Z,17.90
2019-05-01T15:09:17.371Z,18.40
2019-05-01T15:14:40.295Z,18.50
2019-05-01T15:19:50.551Z,15.00
2019-05-01T15:24:55.980Z,18.40
2019-05-01T15:30:01.344Z,18.40
2019-05-01T15:35:07.257Z,18.00
2019-05-01T15:40:26.668Z,17.80
2019-05-01T15:45:32.065Z,17.90
2019-05-01T15:50:37.392Z,18.30
2019-05-01T15:55:42.783Z,19.50
2019-05-01T16:00:48.147Z,19.30
2019-05-01T16:05:53.481Z,21.20
2019-05-01T16:11:05.368Z,21.00
2019-05-01T16:16:11.067Z,20.20
2019-05-01T16:21:16.513Z,19.00
2019-05-01T16:26:21.817Z,18.00
2019-05-01T16:31:27.239Z,17.50
2019-05-01T16:36:32.547Z,17.70
2019-05-01T16:41:38.319Z,17.30
2019-05-01T16:46:43.651Z,16.70
2019-05-01T16:51:48.980Z,16.70
2019-05-01T16:56:57.364Z,16.50
2019-05-01T17:02:09.078Z,16.60
2019-05-01T17:07:29.399Z,16.60
2019-05-01T17:12:41.311Z,16.50
2019-05-01T17:17:46.647Z,16.40
2019-05-01T17:22:57.009Z,16.30
2019-05-01T17:28:08.219Z,16.20
2019-05-01T17:33:20.636Z,16.00
2019-05-01T17:38:28.491Z,15.80
2019-05-01T17:43:35.305Z,15.70
2019-05-01T17:48:41.954Z,15.50
2019-05-01T17:53:48.579Z,15.40
2019-05-01T17:58:57.483Z,15.20
2019-05-01T18:04:31.770Z,15.10
2019-05-01T18:09:40.330Z,14.90
2019-05-01T18:14:47.613Z,14.80
2019-05-01T18:19:59.173Z,14.60
2019-05-01T18:25:23.917Z,14.40
2019-05-01T18:30:36.557Z,14.20
2019-05-01T18:35:44.853Z,13.70
2019-05-01T18:40:54.187Z,13.60
2019-05-01T18:46:00.019Z,13.50
2019-05-01T18:51:05.456Z,13.20
2019-05-01T18:56:11.012Z,13.10
2019-05-01T19:01:16.492Z,13.10
2019-05-01T19:06:40.369Z,13.00
2019-05-01T19:11:34.790Z,12.90
2019-05-01T19:16:45.405Z,12.90
2019-05-01T19:21:50.595Z,12.80
2019-05-01T19:26:57.658Z,12.80
2019-05-01T19:32:03.207Z,12.60
2019-05-01T19:37:10.531Z,12.60
2019-05-01T19:42:21.515Z,12.50
2019-05-01T19:47:23.639Z,12.00
2019-05-01T19:52:32.451Z,11.90
2019-05-01T19:57:35.960Z,11.80
2019-05-01T20:02:41.297Z,11.80
2019-05-01T20:07:56.070Z,11.70
2019-05-01T20:13:01.928Z,11.60
2019-05-01T20:18:09.288Z,11.70
2019-05-01T20:23:17.021Z,11.30
2019-05-01T20:28:24.112Z,11.10
2019-05-01T20:33:33.369Z,10.90
2019-05-01T20:38:38.632Z,11.00
2019-05-01T20:43:45.472Z,10.80
2019-05-01T20:48:56.082Z,10.70
2019-05-01T20:54:03.297Z,10.50
2019-05-01T20:59:10.966Z,10.60
2019-05-01T21:04:47.554Z,10.80
2019-05-01T21:09:57.838Z,10.70
2019-05-01T21:15:02.908Z,10.60
2019-05-01T21:20:09.555Z,10.50
2019-05-01T21:25:17.794Z,10.40
2019-05-01T21:30:29.454Z,10.30
2019-05-01T21:35:37.431Z,10.10
2019-05-01T21:40:53.838Z,10.00
2019-05-01T21:46:03.952Z,9.90
2019-05-01T21:51:09.813Z,9.90
2019-05-01T21:56:15.447Z,9.80
2019-05-01T22:01:21.350Z,9.80
2019-05-01T22:06:27.079Z,9.60
2019-05-01T22:11:33.041Z,9.50
2019-05-01T22:16:39.454Z,9.40
2019-05-01T22:22:16.222Z,9.40
2019-05-01T22:27:25.287Z,9.20
2019-05-01T22:32:38.787Z,9.10
2019-05-01T22:37:44.915Z,9.10
2019-05-01T22:42:50.958Z,8.90
2019-05-01T22:47:56.335Z,8.90
2019-05-01T22:53:01.728Z,8.60
2019-05-01T22:58:07.559Z,8.60
2019-05-01T23:03:24.195Z,8.60
2019-05-01T23:08:30.013Z,8.70
2019-05-01T23:13:35.612Z,8.50
2019-05-01T23:18:41.163Z,8.40
2019-05-01T23:23:47.070Z,8.30
2019-05-01T23:28:53.068Z,8.20
2019-05-01T23:33:58.475Z,8.20
2019-05-01T23:39:05.811Z,8.30
2019-05-01T23:44:12.232Z,8.30
2019-05-01T23:49:18.080Z,8.20
2019-05-01T23:54:23.634Z,7.90
2019-05-01T23:59:29.748Z,7.80
